Time;durP1;ratioP1;P1;durP2;ratioP2;P2;SDS_P1;SDS_P2;PMS_P1;PMS_P2;Temp;Humidity;BMP_temperature;BMP_pressure;BME280_temperature;BME280_humidity;BME280_pressure;Samples;Min_cycle;Max_cycle;Signal;HPM_P1;HPM_P2
2022/07/23 00:02:24;;;;;;;;;;;;;;;17.34;70.96;101801.66;5078557;28;20275;-62
2022/07/23 00:04:49;;;;;;;;;;;;;;;17.31;70.64;101796.66;5078404;28;19927;-62
2022/07/23 00:07:14;;;;;;;;;;;;;;;17.29;70.13;101808.56;5076012;28;19993;-62
2022/07/23 00:09:40;;;;;;;;;;;;;;;17.25;71.71;101804.56;5077196;28;20362;-62
2022/07/23 00:12:05;;;;;;;;;;;;;;;17.19;70.75;101806.16;5076492;28;20395;-62
2022/07/23 00:14:30;;;;;;;;;;;;;;;17.15;70.50;101802.16;5072905;28;19936;-62
2022/07/23 00:16:55;;;;;;;;;;;;;;;17.06;70.74;101799.56;5076762;28;19944;-62
2022/07/23 00:19:20;;;;;;;;;;;;;;;17.02;70.88;101798.25;5077901;28;19999;-62
2022/07/23 00:21:46;;;;;;;;;;;;;;;16.98;71.42;101796.94;5078438;28;19920;-62
2022/07/23 00:24:11;;;;;;;;;;;;;;;16.93;70.84;101793.97;5072367;28;19928;-62
2022/07/23 00:26:36;;;;;;;;;;;;;;;16.87;71.20;101797.38;5077264;28;20288;-62
2022/07/23 00:29:01;;;;;;;;;;;;;;;16.79;71.22;101795.56;5071022;28;20420;-62
2022/07/23 00:31:27;;;;;;;;;;;;;;;16.77;71.17;101801.09;5076241;28;19952;-62
2022/07/23 00:33:56;;;;;;;;;;;;;;;16.79;71.39;101799.06;5075290;28;20262;-62
2022/07/23 00:36:23;;;;;;;;;;;;;;;16.71;71.61;101799.16;5077016;28;21305;-62
2022/07/23 00:38:49;;;;;;;;;;;;;;;16.63;72.07;101791.19;5071347;28;20324;-62
2022/07/23 00:41:14;;;;;;;;;;;;;;;16.57;71.85;101794.56;5071829;28;20291;-62
2022/07/23 00:43:39;;;;;;;;;;;;;;;16.51;72.86;101791.59;5075798;28;19931;-62
2022/07/23 00:46:04;;;;;;;;;;;;;;;16.51;72.59;101791.59;5075063;28;20448;-62
2022/07/23 00:48:29;;;;;;;;;;;;;;;16.49;72.41;101790.09;5071196;28;19917;-62
2022/07/23 00:50:55;;;;;;;;;;;;;;;16.48;71.90;101791.94;5074718;28;20042;-62
2022/07/23 00:53:20;;;;;;;;;;;;;;;16.51;72.32;101791.59;5074442;28;19928;-62
2022/07/23 00:55:46;;;;;;;;;;;;;;;16.47;72.98;101789.47;5070050;28;19928;-62
2022/07/23 00:58:12;;;;;;;;;;;;;;;16.41;72.38;101785.63;5074427;28;19924;-62
2022/07/23 01:00:37;;;;;;;;;;;;;;;16.40;72.45;101786.63;5063011;28;19921;-62
2022/07/23 01:03:02;;;;;;;;;;;;;;;16.38;72.46;101786.00;5062122;28;19916;-62
2022/07/23 01:05:28;;;;;;;;;;;;;;;16.39;72.57;101787.66;5063715;28;20661;-62
2022/07/23 01:07:53;;;;;;;;;;;;;;;16.36;72.32;101793.34;5075263;28;19916;-62
2022/07/23 01:10:30;;;;;;;;;;;;;;;16.32;73.10;101792.88;5067834;28;19925;-62
2022/07/23 01:12:56;;;;;;;;;;;;;;;16.26;72.74;101786.41;5062470;28;20387;-62
2022/07/23 01:15:21;;;;;;;;;;;;;;;16.23;73.04;101786.72;5074255;28;19928;-62
2022/07/23 01:17:46;;;;;;;;;;;;;;;16.23;72.73;101783.25;5070272;28;20440;-62
2022/07/23 01:20:11;;;;;;;;;;;;;;;16.19;73.44;101772.03;5070202;28;19927;-62
2022/07/23 01:22:36;;;;;;;;;;;;;;;16.14;73.44;101779.78;5067526;28;19916;-62
2022/07/23 01:25:02;;;;;;;;;;;;;;;16.07;73.10;101781.47;5066022;28;19920;-62
2022/07/23 01:27:27;;;;;;;;;;;;;;;16.02;72.90;101783.84;5067635;28;20436;-62
2022/07/23 01:29:53;;;;;;;;;;;;;;;16.01;73.39;101780.34;5070866;28;20006;-62
2022/07/23 01:32:19;;;;;;;;;;;;;;;16.02;72.95;101782.00;5072382;28;19925;-62
2022/07/23 01:34:44;;;;;;;;;;;;;;;16.06;73.05;101777.97;5071459;28;20012;-62
2022/07/23 01:37:09;;;;;;;;;;;;;;;16.10;73.08;101778.44;5061403;28;19921;-62
2022/07/23 01:39:34;;;;;;;;;;;;;;;16.08;73.68;101781.28;5058999;28;19963;-62
2022/07/23 01:41:59;;;;;;;;;;;;;;;16.03;73.10;101777.50;5072757;28;19921;-62
2022/07/23 01:44:24;;;;;;;;;;;;;;;15.96;73.79;101777.34;5070021;28;19921;-62
2022/07/23 01:46:50;;;;;;;;;;;;;;;15.90;74.24;101773.50;5071619;28;20577;-62
2022/07/23 01:49:16;;;;;;;;;;;;;;;15.82;74.84;101776.19;5072931;28;19963;-61
2022/07/23 01:51:59;;;;;;;;;;;;;;;15.72;74.13;101774.56;5073287;28;19952;-62
2022/07/23 01:54:24;;;;;;;;;;;;;;;15.71;74.20;101772.91;5072890;28;19924;-62
2022/07/23 01:56:49;;;;;;;;;;;;;;;15.68;74.27;101767.91;5071776;28;20393;-62
2022/07/23 01:59:14;;;;;;;;;;;;;;;15.65;74.37;101770.94;5069212;28;19929;-62
2022/07/23 02:01:40;;;;;;;;;;;;;;;15.64;73.90;101763.88;5068097;28;20382;-62
2022/07/23 02:04:05;;;;;;;;;;;;;;;15.65;74.17;101765.59;5071885;28;19978;-62
2022/07/23 02:06:31;;;;;;;;;;;;;;;15.66;74.29;101767.25;5062804;28;19928;-62
2022/07/23 02:08:56;;;;;;;;;;;;;;;15.62;74.81;101771.25;5068054;28;19954;-62
2022/07/23 02:11:21;;;;;;;;;;;;;;;15.50;75.94;101757.44;5072784;28;19921;-62
2022/07/23 02:13:46;;;;;;;;;;;;;;;15.44;74.85;101752.75;5072022;28;19952;-62
2022/07/23 02:16:11;;;;;;;;;;;;;;;15.42;74.90;101755.63;5072517;28;20446;-62
2022/07/23 02:18:36;;;;;;;;;;;;;;;15.42;74.53;101754.78;5070208;28;19921;-62
2022/07/23 02:21:02;;;;;;;;;;;;;;;15.43;74.42;101762.63;5072629;28;19920;-62
2022/07/23 02:23:27;;;;;;;;;;;;;;;15.41;74.75;101761.13;5068873;28;19920;-62
2022/07/23 02:25:52;;;;;;;;;;;;;;;15.37;74.81;101763.31;5071104;28;19927;-62
2022/07/23 02:28:17;;;;;;;;;;;;;;;15.36;74.93;101764.31;5069570;28;19920;-62
2022/07/23 02:30:42;;;;;;;;;;;;;;;15.35;74.72;101759.16;5068749;28;19973;-62
2022/07/23 02:33:08;;;;;;;;;;;;;;;15.31;74.68;101755.97;5069987;28;19920;-62
2022/07/23 02:35:33;;;;;;;;;;;;;;;15.26;75.38;101751.16;5058979;28;19921;-62
2022/07/23 02:37:59;;;;;;;;;;;;;;;15.24;75.53;101749.66;5061260;28;19932;-62
2022/07/23 02:40:24;;;;;;;;;;;;;;;15.22;74.87;101751.66;5068402;28;20416;-62
2022/07/23 02:42:49;;;;;;;;;;;;;;;15.23;75.17;101761.31;5069514;28;20366;-62
2022/07/23 02:45:14;;;;;;;;;;;;;;;15.24;74.92;101765.69;5072470;28;19916;-62
2022/07/23 02:47:39;;;;;;;;;;;;;;;15.18;75.19;101760.03;5072240;28;20075;-62
2022/07/23 02:50:06;;;;;;;;;;;;;;;15.15;75.83;101768.34;5068005;28;19924;-62
2022/07/23 02:52:31;;;;;;;;;;;;;;;15.04;76.17;101769.53;5065799;28;19920;-62
2022/07/23 02:54:57;;;;;;;;;;;;;;;14.92;76.24;101766.38;5073210;28;19923;-62
2022/07/23 02:57:22;;;;;;;;;;;;;;;14.85;75.71;101770.72;5069217;28;19948;-62
2022/07/23 02:59:47;;;;;;;;;;;;;;;14.83;75.97;101772.72;5064390;28;19928;-62
2022/07/23 03:02:12;;;;;;;;;;;;;;;14.81;76.48;101769.41;5066883;28;19920;-62
2022/07/23 03:04:37;;;;;;;;;;;;;;;14.81;76.06;101769.41;5071769;28;20003;-62
2022/07/23 03:07:02;;;;;;;;;;;;;;;14.79;76.23;101779.41;5069750;28;19924;-62
2022/07/23 03:09:28;;;;;;;;;;;;;;;14.75;76.62;101770.06;5071319;28;20573;-62
2022/07/23 03:11:53;;;;;;;;;;;;;;;14.72;76.13;101770.34;5072513;28;19924;-62
2022/07/23 03:14:18;;;;;;;;;;;;;;;14.74;76.12;101771.00;5069842;28;20546;-62
2022/07/23 03:16:43;;;;;;;;;;;;;;;14.72;76.07;101770.34;5069716;28;19982;-62
2022/07/23 03:19:08;;;;;;;;;;;;;;;14.75;76.33;101775.41;5069199;28;20403;-62
2022/07/23 03:21:34;;;;;;;;;;;;;;;14.75;76.14;101770.06;5069202;28;19990;-62
2022/07/23 03:23:59;;;;;;;;;;;;;;;14.74;76.32;101773.69;5071195;28;19917;-62
2022/07/23 03:26:25;;;;;;;;;;;;;;;14.75;76.28;101775.41;5069517;28;19924;-62
2022/07/23 03:28:50;;;;;;;;;;;;;;;14.76;76.09;101777.06;5066726;28;19962;-62
2022/07/23 03:31:15;;;;;;;;;;;;;;;14.76;76.33;101777.88;5064659;28;19925;-62
2022/07/23 03:33:41;;;;;;;;;;;;;;;14.73;76.60;101783.53;5065504;28;20372;-62
2022/07/23 03:36:06;;;;;;;;;;;;;;;14.74;76.87;101784.34;5063065;28;19967;-61
2022/07/23 03:38:31;;;;;;;;;;;;;;;14.69;76.79;101782.19;5068595;28;19932;-62
2022/07/23 03:40:57;;;;;;;;;;;;;;;14.68;76.76;101785.88;5068660;28;19924;-62
2022/07/23 03:43:24;;;;;;;;;;;;;;;14.70;76.89;101783.03;5068793;28;19927;-62
2022/07/23 03:45:49;;;;;;;;;;;;;;;14.65;77.01;101787.03;5062370;28;19925;-61
2022/07/23 03:48:14;;;;;;;;;;;;;;;14.60;77.23;101783.19;5066644;28;20333;-62
2022/07/23 03:50:39;;;;;;;;;;;;;;;14.56;77.52;101788.00;5068240;28;19928;-62
2022/07/23 03:53:04;;;;;;;;;;;;;;;14.48;77.37;101790.69;5070354;28;20346;-60
2022/07/23 03:55:30;;;;;;;;;;;;;;;14.46;77.40;101784.69;5063342;28;20041;-60
2022/07/23 03:57:55;;;;;;;;;;;;;;;14.47;77.18;101786.34;5067899;28;19932;-64
2022/07/23 04:00:20;;;;;;;;;;;;;;;14.47;77.75;101789.00;5067412;28;20018;-64
2022/07/23 04:02:45;;;;;;;;;;;;;;;14.42;77.48;101786.00;5058460;28;19921;-64
2022/07/23 04:05:11;;;;;;;;;;;;;;;14.42;77.27;101784.19;5064413;28;19963;-64
2022/07/23 04:07:36;;;;;;;;;;;;;;;14.43;77.07;101787.66;5070519;28;20062;-64
2022/07/23 04:10:01;;;;;;;;;;;;;;;14.43;77.27;101787.66;5067948;28;19928;-62
2022/07/23 04:12:27;;;;;;;;;;;;;;;14.46;77.08;101792.69;5069065;28;20294;-62
2022/07/23 04:14:52;;;;;;;;;;;;;;;14.47;77.62;101794.34;5069586;28;19927;-59
2022/07/23 04:17:17;;;;;;;;;;;;;;;14.41;77.75;101800.34;5068607;28;19921;-62
2022/07/23 04:19:43;;;;;;;;;;;;;;;14.34;77.72;101805.47;5069396;28;19928;-62
2022/07/23 04:22:09;;;;;;;;;;;;;;;14.34;77.95;101801.00;5061399;28;19932;-62
2022/07/23 04:24:35;;;;;;;;;;;;;;;14.31;77.61;101805.81;5064664;28;19927;-62
2022/07/23 04:27:00;;;;;;;;;;;;;;;14.29;77.81;101808.66;5062172;28;19921;-62
2022/07/23 04:29:25;;;;;;;;;;;;;;;14.30;77.94;101802.31;5068765;28;20005;-62
2022/07/23 04:31:51;;;;;;;;;;;;;;;14.30;78.23;101812.16;5068054;28;20302;-62
2022/07/23 04:34:16;;;;;;;;;;;;;;;14.24;78.29;101811.81;5061037;28;19921;-62
2022/07/23 04:36:41;;;;;;;;;;;;;;;14.19;78.68;101818.63;5066202;28;19966;-62
2022/07/23 04:39:06;;;;;;;;;;;;;;;14.16;78.68;101817.09;5070858;28;19924;-62
2022/07/23 04:41:32;;;;;;;;;;;;;;;14.18;78.39;101822.28;5067033;28;19927;-62
2022/07/23 04:43:57;;;;;;;;;;;;;;;14.22;78.36;101826.31;5070522;28;20367;-62
2022/07/23 04:46:22;;;;;;;;;;;;;;;14.24;79.23;101821.63;5064557;28;19929;-62
2022/07/23 04:48:48;;;;;;;;;;;;;;;14.26;78.25;101830.31;5068636;28;19946;-62
2022/07/23 04:51:14;;;;;;;;;;;;;;;14.28;78.52;101833.66;5068049;28;19928;-62
2022/07/23 04:53:39;;;;;;;;;;;;;;;14.28;78.56;101830.16;5063660;28;20393;-62
2022/07/23 04:56:05;;;;;;;;;;;;;;;14.28;78.65;101832.81;5069348;28;19928;-62
2022/07/23 04:58:31;;;;;;;;;;;;;;;14.30;78.80;101831.66;5066821;28;19920;-62
2022/07/23 05:00:57;;;;;;;;;;;;;;;14.30;81.01;101830.84;5067932;28;20012;-62
2022/07/23 05:03:23;;;;;;;;;;;;;;;14.26;80.59;101824.97;5070044;28;20366;-62
2022/07/23 05:05:48;;;;;;;;;;;;;;;14.24;79.45;101824.31;5066334;28;19946;-62
2022/07/23 05:08:13;;;;;;;;;;;;;;;14.26;79.49;101830.31;5066482;28;19931;-62
2022/07/23 05:10:38;;;;;;;;;;;;;;;14.29;79.38;101832.66;5071237;28;19927;-62
2022/07/23 05:13:03;;;;;;;;;;;;;;;14.37;79.06;101835.34;5069676;28;19920;-62
2022/07/23 05:15:29;;;;;;;;;;;;;;;14.46;78.56;101833.53;5070568;28;20264;-60
2022/07/23 05:17:54;;;;;;;;;;;;;;;14.54;78.67;101830.06;5066760;28;19928;-62
2022/07/23 05:20:19;;;;;;;;;;;;;;;14.59;78.66;101835.75;5068911;28;20268;-62
2022/07/23 05:22:45;;;;;;;;;;;;;;;14.62;78.74;101832.75;5068740;28;20355;-62
2022/07/23 05:25:10;;;;;;;;;;;;;;;14.65;78.68;101837.75;5063747;28;19920;-62
2022/07/23 05:27:35;;;;;;;;;;;;;;;14.69;78.54;101845.44;5068213;28;19924;-62
2022/07/23 05:30:00;;;;;;;;;;;;;;;14.74;78.63;101843.09;5068409;28;19920;-62
2022/07/23 05:32:26;;;;;;;;;;;;;;;14.81;78.16;101844.16;5069380;28;19936;-62
2022/07/23 05:34:51;;;;;;;;;;;;;;;14.83;78.14;101836.81;5065181;28;20012;-62
2022/07/23 05:37:16;;;;;;;;;;;;;;;14.86;78.74;101841.81;5063768;28;20384;-62
2022/07/23 05:39:42;;;;;;;;;;;;;;;14.87;78.69;101848.00;5062244;28;19931;-62
2022/07/23 05:42:07;;;;;;;;;;;;;;;14.88;79.13;101847.84;5063137;28;19924;-62
2022/07/23 05:44:32;;;;;;;;;;;;;;;14.95;78.85;101856.00;5068775;28;19924;-61
2022/07/23 05:46:58;;;;;;;;;;;;;;;14.99;78.95;101851.19;5067667;28;19951;-62
2022/07/23 05:49:23;;;;;;;;;;;;;;;15.05;78.72;101845.19;5063292;28;19931;-62
2022/07/23 05:51:48;;;;;;;;;;;;;;;15.12;78.67;101856.88;5062247;28;19924;-62
2022/07/23 05:54:13;;;;;;;;;;;;;;;15.15;78.82;101861.03;5063569;28;20299;-62
2022/07/23 05:56:39;;;;;;;;;;;;;;;15.26;78.21;101857.19;5070286;28;19920;-62
2022/07/23 05:59:04;;;;;;;;;;;;;;;15.33;78.77;101864.38;5068259;28;20382;-60
2022/07/23 06:01:29;;;;;;;;;;;;;;;15.43;78.41;101858.84;5070003;28;19920;-61
2022/07/23 06:03:54;;;;;;;;;;;;;;;15.54;78.78;101870.22;5072218;28;19920;-61
2022/07/23 06:06:20;;;;;;;;;;;;;;;15.62;79.63;101878.19;5068112;28;20022;-63
2022/07/23 06:08:45;;;;;;;;;;;;;;;15.70;78.68;101874.69;5072340;28;19921;-61
2022/07/23 06:11:10;;;;;;;;;;;;;;;15.81;78.45;101884.19;5070027;28;19920;-62
2022/07/23 06:13:35;;;;;;;;;;;;;;;15.91;78.21;101881.31;5071129;28;19928;-61
2022/07/23 06:16:01;;;;;;;;;;;;;;;15.96;78.31;101879.84;5068246;28;19936;-61
2022/07/23 06:18:26;;;;;;;;;;;;;;;16.04;79.58;101872.78;5071837;28;19927;-62
2022/07/23 06:20:51;;;;;;;;;;;;;;;16.12;78.34;101872.75;5068503;28;20011;-62
2022/07/23 06:23:16;;;;;;;;;;;;;;;16.24;77.77;101876.72;5071151;28;19920;-60
2022/07/23 06:25:43;;;;;;;;;;;;;;;16.34;78.00;101881.03;5064259;28;20343;-61
2022/07/23 06:28:08;;;;;;;;;;;;;;;16.38;78.10;101882.34;5069622;28;20012;-62
2022/07/23 06:30:33;;;;;;;;;;;;;;;16.44;77.86;101878.97;5071397;28;20054;-61
2022/07/23 06:32:58;;;;;;;;;;;;;;;16.49;77.59;101875.78;5070630;28;19925;-61
2022/07/23 06:35:23;;;;;;;;;;;;;;;16.55;77.67;101883.09;5072019;28;19920;-61
2022/07/23 06:37:49;;;;;;;;;;;;;;;16.63;77.35;101879.53;5072377;28;20014;-61
2022/07/23 06:40:14;;;;;;;;;;;;;;;16.69;77.43;101884.19;5072162;28;19920;-62
2022/07/23 06:42:39;;;;;;;;;;;;;;;16.69;77.16;101878.84;5072500;28;19948;-62
2022/07/23 06:45:05;;;;;;;;;;;;;;;16.77;76.89;101881.44;5071602;28;19916;-61
2022/07/23 06:47:30;;;;;;;;;;;;;;;16.74;76.93;101886.34;5069397;28;19928;-64
2022/07/23 06:49:55;;;;;;;;;;;;;;;16.85;76.06;101882.41;5071290;28;19916;-61
2022/07/23 06:52:20;;;;;;;;;;;;;;;16.83;75.83;101890.66;5071369;28;20295;-61
2022/07/23 06:54:46;;;;;;;;;;;;;;;16.86;75.76;101892.94;5071867;28;20030;-61
2022/07/23 06:57:11;;;;;;;;;;;;;;;16.88;74.82;101890.09;5070855;28;20271;-61
2022/07/23 06:59:40;;;;;;;;;;;;;;;16.95;75.62;101888.38;5070064;28;19936;-60
2022/07/23 07:02:05;;;;;;;;;;;;;;;17.02;75.08;101881.31;5065645;28;19951;-61
2022/07/23 07:04:30;;;;;;;;;;;;;;;17.19;75.00;101884.72;5066885;28;19970;-61
2022/07/23 07:06:56;;;;;;;;;;;;;;;17.17;75.17;101888.59;5066257;28;20592;-61
2022/07/23 07:09:21;;;;;;;;;;;;;;;17.19;75.03;101879.34;5065806;28;19927;-59
2022/07/23 07:11:46;;;;;;;;;;;;;;;17.28;74.46;101887.31;5065519;28;19928;-60
2022/07/23 07:14:11;;;;;;;;;;;;;;;17.36;74.21;101878.38;5071235;28;20406;-60
2022/07/23 07:16:36;;;;;;;;;;;;;;;17.45;73.08;101878.13;5070158;28;20390;-60
2022/07/23 07:19:02;;;;;;;;;;;;;;;17.42;73.71;101877.66;5064755;28;19994;-60
2022/07/23 07:21:27;;;;;;;;;;;;;;;17.46;73.68;101879.78;5070293;28;19921;-62
2022/07/23 07:23:52;;;;;;;;;;;;;;;17.54;73.18;101889.59;5058946;28;20351;-62
2022/07/23 07:26:17;;;;;;;;;;;;;;;17.70;72.30;101885.91;5061598;28;19920;-62
2022/07/23 07:28:42;;;;;;;;;;;;;;;17.65;72.59;101898.22;5069712;28;20372;-62
2022/07/23 07:31:07;;;;;;;;;;;;;;;17.69;72.62;101894.97;5069951;28;19959;-62
2022/07/23 07:33:32;;;;;;;;;;;;;;;17.85;72.32;101893.13;5070960;28;20291;-62
2022/07/23 07:35:58;;;;;;;;;;;;;;;17.78;72.25;101898.41;5070070;28;19921;-62
2022/07/23 07:38:23;;;;;;;;;;;;;;;17.83;72.41;101901.38;5072427;28;19920;-62
2022/07/23 07:40:49;;;;;;;;;;;;;;;17.89;72.16;101907.84;5068141;28;19924;-62
2022/07/23 07:43:14;;;;;;;;;;;;;;;17.90;71.88;101895.28;5069443;28;19917;-62
2022/07/23 07:45:39;;;;;;;;;;;;;;;17.93;71.41;101886.84;5066907;28;20406;-62
2022/07/23 07:48:05;;;;;;;;;;;;;;;18.04;71.57;101891.75;5069548;28;19921;-62
2022/07/23 07:50:30;;;;;;;;;;;;;;;18.10;71.31;101896.41;5063794;28;19924;-62
2022/07/23 07:52:55;;;;;;;;;;;;;;;18.26;70.98;101894.56;5071957;28;19920;-62
2022/07/23 07:55:20;;;;;;;;;;;;;;;18.29;69.35;101894.16;5061885;28;19921;-62
2022/07/23 07:57:45;;;;;;;;;;;;;;;18.37;69.75;101901.28;5070640;28;20382;-62
2022/07/23 08:00:11;;;;;;;;;;;;;;;18.38;69.71;101903.78;5069773;28;19920;-62
2022/07/23 08:02:54;;;;;;;;;;;;;;;18.38;69.41;101898.41;5071708;28;19921;-62
2022/07/23 08:05:21;;;;;;;;;;;;;;;18.44;69.70;101901.38;5074280;28;19955;-62
2022/07/23 08:07:46;;;;;;;;;;;;;;;18.49;68.36;101904.31;5070556;28;19996;-62
2022/07/23 08:10:11;;;;;;;;;;;;;;;18.52;68.13;101909.31;5068263;28;20051;-62
2022/07/23 08:12:46;;;;;;;;;;;;;;;18.57;68.50;101906.06;5075545;28;19927;-62
2022/07/23 08:15:16;;;;;;;;;;;;;;;18.74;68.85;101901.31;5072572;28;19920;-62
2022/07/23 08:17:42;;;;;;;;;;;;;;;18.81;68.71;101904.88;5071441;28;19927;-62
2022/07/23 08:20:07;;;;;;;;;;;;;;;18.89;67.18;101910.13;5069498;28;19920;-61
2022/07/23 08:22:51;;;;;;;;;;;;;;;18.92;68.03;101908.91;5070323;28;19927;-62
2022/07/23 08:25:20;;;;;;;;;;;;;;;19.05;67.54;101919.81;5071537;28;19921;-62
2022/07/23 08:27:45;;;;;;;;;;;;;;;19.09;66.77;101915.75;5063741;28;20267;-62
2022/07/23 08:30:10;;;;;;;;;;;;;;;19.01;67.03;101928.44;5069659;28;19931;-63
2022/07/23 08:33:12;;;;;;;;;;;;;;;19.04;66.71;101928.91;5063761;28;19921;-62
2022/07/23 08:35:39;;;;;;;;;;;;;;;18.98;66.94;101934.22;4996240;28;19957;-62
2022/07/23 08:38:06;;;;;;;;;;;;;;;19.02;66.87;101935.47;5053730;28;19999;-62
2022/07/23 08:40:32;;;;;;;;;;;;;;;19.05;66.20;101935.13;5067113;28;19921;-62
2022/07/23 08:42:58;;;;;;;;;;;;;;;19.14;67.28;101928.59;5065851;28;19963;-62
2022/07/23 08:45:25;;;;;;;;;;;;;;;19.26;66.74;101931.63;5064588;28;19959;-62
2022/07/23 08:47:55;;;;;;;;;;;;;;;19.34;65.77;101934.16;5068551;28;19928;-62
2022/07/23 08:50:20;;;;;;;;;;;;;;;19.38;65.24;101934.59;5064315;28;21042;-62
2022/07/23 08:52:47;;;;;;;;;;;;;;;19.35;66.16;101929.63;5065697;28;20000;-62
2022/07/23 08:55:13;;;;;;;;;;;;;;;19.47;65.54;101938.00;5071611;28;19920;-62
2022/07/23 08:57:38;;;;;;;;;;;;;;;19.62;65.06;101933.38;5066107;28;19927;-63
2022/07/23 09:00:04;;;;;;;;;;;;;;;19.69;65.63;101941.47;5067628;28;19935;-62
2022/07/23 09:02:29;;;;;;;;;;;;;;;19.76;65.05;101937.00;5065883;28;19924;-62
2022/07/23 09:04:54;;;;;;;;;;;;;;;19.81;64.52;101938.22;5068900;28;20398;-62
2022/07/23 09:07:20;;;;;;;;;;;;;;;19.92;64.03;101929.63;5065646;28;20003;-63
2022/07/23 09:09:45;;;;;;;;;;;;;;;19.89;64.06;101930.03;5068484;28;19993;-62
2022/07/23 09:12:10;;;;;;;;;;;;;;;19.91;64.21;101925.28;5067799;28;20400;-63
2022/07/23 09:14:37;;;;;;;;;;;;;;;20.02;64.58;101922.06;5068339;28;19916;-62
2022/07/23 09:17:21;;;;;;;;;;;;;;;20.12;64.34;101920.84;5067557;28;19917;-62
2022/07/23 09:19:46;;;;;;;;;;;;;;;20.37;62.10;101909.59;5068472;28;19928;-62
2022/07/23 09:22:22;;;;;;;;;;;;;;;20.23;63.06;101906.81;5068035;28;19920;-62
2022/07/23 09:25:02;;;;;;;;;;;;;;;20.26;63.46;101903.75;5069232;28;19936;-62
2022/07/23 09:27:44;;;;;;;;;;;;;;;20.35;62.38;101906.25;5064232;28;19999;-62
2022/07/23 09:30:10;;;;;;;;;;;;;;;20.35;62.92;101914.34;5066596;28;19931;-62
2022/07/23 09:32:35;;;;;;;;;;;;;;;20.38;63.40;101911.25;5068590;28;19920;-62
2022/07/23 09:35:00;;;;;;;;;;;;;;;20.47;63.14;101920.81;5064569;28;19917;-62
2022/07/23 09:37:25;;;;;;;;;;;;;;;20.58;62.97;101921.25;5063808;28;20401;-62
2022/07/23 09:39:50;;;;;;;;;;;;;;;20.60;63.33;101924.56;5063948;28;19962;-62
2022/07/23 09:42:18;;;;;;;;;;;;;;;20.67;62.91;101933.53;5067595;28;19927;-62
2022/07/23 09:44:53;;;;;;;;;;;;;;;20.70;62.19;101930.41;5068627;28;19999;-62
2022/07/23 09:47:19;;;;;;;;;;;;;;;20.70;60.72;101925.88;5071029;28;19912;-62
2022/07/23 09:50:05;;;;;;;;;;;;;;;20.66;61.73;101924.59;5068416;28;19920;-62
2022/07/23 09:52:35;;;;;;;;;;;;;;;20.70;62.16;101928.56;5065809;28;19916;-63
2022/07/23 09:55:02;;;;;;;;;;;;;;;20.83;61.72;101927.75;5065704;28;20354;-62
2022/07/23 09:57:27;;;;;;;;;;;;;;;20.87;61.30;101933.59;5067213;28;19928;-62
2022/07/23 09:59:57;;;;;;;;;;;;;;;20.97;61.18;101930.53;5065373;28;19928;-62
2022/07/23 10:02:22;;;;;;;;;;;;;;;20.99;61.29;101923.06;5067442;28;20605;-62
2022/07/23 10:04:48;;;;;;;;;;;;;;;21.02;61.91;101933.41;5072781;28;19920;-63
2022/07/23 10:07:13;;;;;;;;;;;;;;;21.08;61.61;101921.81;5062688;28;20273;-62
2022/07/23 10:09:39;;;;;;;;;;;;;;;21.16;61.62;101925.38;5068509;28;19928;-62
2022/07/23 10:12:21;;;;;;;;;;;;;;;21.30;60.04;101935.09;5066779;28;19921;-62
2022/07/23 10:14:47;;;;;;;;;;;;;;;21.29;60.05;101930.75;5067175;28;19943;-62
2022/07/23 10:17:12;;;;;;;;;;;;;;;21.35;59.05;101927.22;5066167;28;19932;-62
2022/07/23 10:19:38;;;;;;;;;;;;;;;21.44;59.71;101924.31;5065853;28;19920;-62
2022/07/23 10:22:11;;;;;;;;;;;;;;;21.54;59.02;101929.28;5065453;28;19940;-62
2022/07/23 10:24:37;;;;;;;;;;;;;;;21.63;59.16;101925.34;5065005;28;20038;-62
2022/07/23 10:27:14;;;;;;;;;;;;;;;21.70;57.54;101928.91;5065144;28;20434;-62
2022/07/23 10:29:50;;;;;;;;;;;;;;;21.71;59.23;101932.44;5065408;28;19924;-62
2022/07/23 10:32:20;;;;;;;;;;;;;;;21.73;58.72;101924.94;5064790;28;20003;-62
2022/07/23 10:35:10;;;;;;;;;;;;;;;21.80;59.16;101933.03;5063719;28;20011;-62
2022/07/23 10:37:38;;;;;;;;;;;;;;;21.90;57.82;101939.66;5067676;28;20335;-62
2022/07/23 10:40:14;;;;;;;;;;;;;;;21.94;58.47;101933.84;5068222;28;20403;-63
2022/07/23 10:42:40;;;;;;;;;;;;;;;22.02;59.02;101928.22;5065680;28;19936;-62
2022/07/23 10:45:24;;;;;;;;;;;;;;;22.15;58.35;101936.25;5064715;28;19951;-62
2022/07/23 10:47:52;;;;;;;;;;;;;;;22.25;58.18;101932.31;5065561;28;19971;-62
2022/07/23 10:50:18;;;;;;;;;;;;;;;22.37;56.55;101922.47;5068566;28;19920;-62
2022/07/23 10:53:03;;;;;;;;;;;;;;;22.41;57.17;101930.97;5066034;28;19934;-63
2022/07/23 10:55:28;;;;;;;;;;;;;;;22.38;55.40;101926.84;5071400;28;20041;-62
2022/07/23 10:57:54;;;;;;;;;;;;;;;22.35;56.48;101921.84;5069839;28;19950;-62
2022/07/23 11:00:20;;;;;;;;;;;;;;;22.40;55.05;101930.16;5065337;28;19928;-60
2022/07/23 11:02:46;;;;;;;;;;;;;;;22.43;57.44;101927.03;5063452;28;20563;-61
2022/07/23 11:05:15;;;;;;;;;;;;;;;22.56;57.63;101925.34;5062340;28;19935;-60
2022/07/23 11:07:59;;;;;;;;;;;;;;;22.73;57.43;101930.25;5068797;28;19955;-60
2022/07/23 11:10:44;;;;;;;;;;;;;;;22.85;56.51;101917.69;5066375;28;20391;-61
2022/07/23 11:13:36;;;;;;;;;;;;;;;22.88;56.04;101914.53;5068844;28;19924;-60
2022/07/23 11:16:01;;;;;;;;;;;;;;;22.93;55.62;101920.13;5058561;28;19928;-60
2022/07/23 11:18:41;;;;;;;;;;;;;;;22.92;55.95;101913.06;5069973;28;20383;-60
2022/07/23 11:21:31;;;;;;;;;;;;;;;23.00;55.27;101916.53;5070752;28;20363;-60
2022/07/23 11:23:56;;;;;;;;;;;;;;;23.03;55.08;101908.81;5072313;28;19920;-60
2022/07/23 11:26:36;;;;;;;;;;;;;;;23.17;55.41;101908.69;5069241;28;19929;-62
2022/07/23 11:29:20;;;;;;;;;;;;;;;23.36;53.60;101906.91;5065224;28;19928;-62
2022/07/23 11:31:56;;;;;;;;;;;;;;;23.38;52.92;101904.81;5061547;28;20011;-63
2022/07/23 11:34:29;;;;;;;;;;;;;;;23.31;51.88;101913.00;5062891;28;19990;-62
2022/07/23 11:36:55;;;;;;;;;;;;;;;23.31;51.71;101914.88;5062234;28;19925;-63
2022/07/23 11:39:20;;;;;;;;;;;;;;;23.34;52.67;101914.44;5062068;28;20401;-63
2022/07/23 11:41:46;;;;;;;;;;;;;;;23.37;51.75;101908.56;5066350;28;19921;-60
2022/07/23 11:44:29;;;;;;;;;;;;;;;23.42;52.21;101906.03;5059280;28;19931;-60
2022/07/23 11:47:04;;;;;;;;;;;;;;;23.53;50.81;101907.16;5064130;28;20687;-61
2022/07/23 11:49:29;;;;;;;;;;;;;;;23.57;52.69;101907.53;5056532;28;20429;-59
2022/07/23 11:52:04;;;;;;;;;;;;;;;23.70;52.36;101907.44;5065151;28;20004;-60
2022/07/23 11:54:30;;;;;;;;;;;;;;;23.77;52.25;101908.19;5063383;28;19954;-61
2022/07/23 11:56:56;;;;;;;;;;;;;;;23.84;52.20;101904.59;5060837;28;20549;-61
2022/07/23 11:59:22;;;;;;;;;;;;;;;23.95;52.50;101903.00;5066961;28;20019;-61
2022/07/23 12:01:58;;;;;;;;;;;;;;;23.97;51.26;101900.91;5063833;28;20034;-62
2022/07/23 12:04:25;;;;;;;;;;;;;;;23.99;51.80;101896.91;5063216;28;20003;-61
2022/07/23 12:06:50;;;;;;;;;;;;;;;23.94;51.99;101907.59;5062832;28;20598;-61
2022/07/23 12:09:15;;;;;;;;;;;;;;;23.95;51.85;101911.97;5064684;28;19970;-61
2022/07/23 12:11:55;;;;;;;;;;;;;;;23.97;51.29;101907.13;5063264;28;19928;-61
2022/07/23 12:14:21;;;;;;;;;;;;;;;24.01;50.23;101902.94;5067305;28;20314;-63
2022/07/23 12:16:46;;;;;;;;;;;;;;;23.84;51.08;101905.41;5064514;28;19921;-61
2022/07/23 12:19:13;;;;;;;;;;;;;;;23.96;51.44;101908.19;5063615;28;19931;-62
2022/07/23 12:21:38;;;;;;;;;;;;;;;24.02;51.78;101899.16;5065197;28;19921;-61
2022/07/23 12:24:07;;;;;;;;;;;;;;;24.11;50.36;101898.88;5066490;28;20494;-63
2022/07/23 12:26:32;;;;;;;;;;;;;;;24.15;50.88;101900.09;5067510;28;20259;-61
2022/07/23 12:28:57;;;;;;;;;;;;;;;24.26;48.88;101893.06;5063655;28;19921;-60
2022/07/23 12:31:26;;;;;;;;;;;;;;;24.21;50.68;101896.47;5066500;28;19973;-60
2022/07/23 12:33:51;;;;;;;;;;;;;;;24.33;50.57;101892.97;5067690;28;20418;-61
2022/07/23 12:36:16;;;;;;;;;;;;;;;24.44;49.66;101884.06;5066759;28;19920;-60